This is the latest recevied weather packets stored in our database for station/object EA6MW-10. If no packets are shown the sender has not sent any weather packets the latest 10 day(s).
| Time | Temp. | Humidity | Pressure | Rain* | Wind** | Luminosity | Snow |
|---|---|---|---|---|---|---|---|
| 1778066686 | 28.89° C | 44% | 1012.5 hPa | - | - | - | - |
| 1778065785 | 22.78° C | 54% | 1012.8 hPa | - | - | - | - |
| 1778064885 | 30° C | 42% | 1012.9 hPa | - | - | - | - |
| 1778063984 | 28.33° C | 45% | 1013 hPa | - | - | - | - |
| 1778063084 | 22.78° C | 55% | 1013 hPa | - | - | - | - |
| 1778062184 | 27.22° C | 46% | 1013 hPa | - | - | - | - |
| 1778061283 | 30.56° C | 41% | 1013 hPa | - | - | - | - |
| 1778060383 | 27.22° C | 47% | 1013.1 hPa | - | - | - | - |
| 1778059483 | 27.78° C | 45% | 1013 hPa | - | - | - | - |
| 1778058583 | 23.89° C | 54% | 1013 hPa | - | - | - | - |
| 1778057682 | 25.56° C | 48% | 1012.8 hPa | - | - | - | - |
| 1778056782 | 29.44° C | 42% | 1012.9 hPa | - | - | - | - |
| 1778055882 | 30.56° C | 41% | 1013.1 hPa | - | - | - | - |
| 1778054981 | 29.44° C | 42% | 1013 hPa | - | - | - | - |
| 1778054081 | 28.33° C | 44% | 1013 hPa | - | - | - | - |
| 1778053180 | 25.56° C | 48% | 1013 hPa | - | - | - | - |
| 1778052280 | 27.78° C | 48% | 1013.1 hPa | - | - | - | - |
| 1778051380 | 24.44° C | 57% | 1013 hPa | - | - | - | - |
| 1778050480 | 23.89° C | 57% | 1013.1 hPa | - | - | - | - |
| 1778049579 | 21.67° C | 65% | 1013.1 hPa | - | - | - | - |
| 1778048679 | 18.89° C | 71% | 1013.1 hPa | - | - | - | - |
| 1778047778 | 16.11° C | 85% | 1013.2 hPa | - | - | - | - |
| 1778046878 | 12.22° C | 95% | 1013.3 hPa | - | - | - | - |
| 1778045978 | 11.67° C | 96% | 1013.1 hPa | - | - | - | - |
| 1778045078 | 11.11° C | 96% | 1012.8 hPa | - | - | - | - |
* Rain since midnight (hover to see other rain measurements)
** Current wind speed in m/s (hover to see current wind gust speed)